createdAt,value
2023-04-24T00:01:04.816Z,94610.16
2023-04-24T00:03:31.659Z,94615.94
2023-04-24T00:06:00.026Z,94610.16
2023-04-24T00:08:26.688Z,94595.22
2023-04-24T00:10:53.847Z,94620.22
2023-04-24T00:13:22.773Z,94625.34
2023-04-24T00:15:49.373Z,94620.69
2023-04-24T00:18:16.044Z,94615.09
2023-04-24T00:20:44.715Z,94629.53
2023-04-24T00:23:11.549Z,94630.97
2023-04-24T00:25:38.104Z,94619.94
2023-04-24T00:28:04.725Z,94626.97
2023-04-24T00:30:32.150Z,94627.47
2023-04-24T00:32:59.384Z,94628.44
2023-04-24T00:35:26.234Z,94623.00
2023-04-24T00:37:52.841Z,94625.91
2023-04-24T00:40:19.344Z,94616.47
2023-04-24T00:42:46.697Z,94642.28
2023-04-24T00:45:13.449Z,94634.59
2023-04-24T00:47:44.152Z,94629.81
2023-04-24T00:50:12.559Z,94637.16
2023-04-24T00:52:41.913Z,94640.06
2023-04-24T00:55:09.364Z,94626.78
2023-04-24T00:57:36.761Z,94639.91
2023-04-24T01:00:04.676Z,94635.44
2023-04-24T01:02:31.489Z,94642.66
2023-04-24T01:04:58.507Z,94636.56
2023-04-24T01:07:26.212Z,94624.38
2023-04-24T01:09:53.259Z,94634.13
2023-04-24T01:12:20.819Z,94634.78
2023-04-24T01:14:47.688Z,94619.72
2023-04-24T01:17:14.269Z,94622.47
2023-04-24T01:19:41.816Z,94628.38
2023-04-24T01:22:12.767Z,94630.78
2023-04-24T01:24:41.258Z,94628.06
2023-04-24T01:27:09.040Z,94643.25
2023-04-24T01:29:36.454Z,94638.31
2023-04-24T01:32:04.631Z,94641.34
2023-04-24T01:34:31.897Z,94631.56
2023-04-24T01:36:58.765Z,94638.59
2023-04-24T01:39:26.609Z,94641.63
2023-04-24T01:41:54.644Z,94654.25
2023-04-24T01:44:22.226Z,94641.94
2023-04-24T01:46:48.983Z,94638.09
2023-04-24T01:49:15.691Z,94630.41
2023-04-24T01:51:42.258Z,94628.81
2023-04-24T01:54:08.904Z,94642.34
2023-04-24T01:56:36.892Z,94636.75
2023-04-24T01:59:04.860Z,94628.91
2023-04-24T02:01:39.170Z,94624.09
2023-04-24T02:04:07.813Z,94616.56
2023-04-24T02:06:34.476Z,94625.34
2023-04-24T02:09:02.517Z,94627.59
2023-04-24T02:11:29.126Z,94622.63
2023-04-24T02:13:55.618Z,94627.88
2023-04-24T02:16:22.302Z,94630.47
2023-04-24T02:18:48.815Z,94628.84
2023-04-24T02:21:15.607Z,94637.50
2023-04-24T02:23:42.227Z,94633.34
2023-04-24T02:26:08.958Z,94641.03
2023-04-24T02:28:35.751Z,94642.81
2023-04-24T02:31:02.485Z,94645.38
2023-04-24T02:33:29.401Z,94646.81
2023-04-24T02:35:55.975Z,94637.53
2023-04-24T02:38:23.441Z,94641.38
2023-04-24T02:40:50.140Z,94651.78
2023-04-24T02:43:16.620Z,94650.16
2023-04-24T02:45:43.144Z,94661.22
2023-04-24T02:48:09.671Z,94655.94
2023-04-24T02:54:20.132Z,94652.47
2023-04-24T03:03:19.257Z,94661.59
2023-04-24T03:05:48.528Z,94668.66
2023-04-24T03:08:15.537Z,94671.22
2023-04-24T03:10:42.032Z,94671.38
2023-04-24T03:13:08.693Z,94678.72
2023-04-24T03:15:35.199Z,94661.28
2023-04-24T03:18:03.690Z,94667.22
2023-04-24T03:20:31.317Z,94668.34
2023-04-24T03:22:58.215Z,94668.66
2023-04-24T03:25:26.903Z,94673.44
2023-04-24T03:27:53.524Z,94672.66
2023-04-24T03:30:20.239Z,94678.88
2023-04-24T03:32:46.875Z,94675.69
2023-04-24T03:35:13.425Z,94673.44
2023-04-24T03:37:39.959Z,94679.38
2023-04-24T03:40:08.090Z,94671.22
2023-04-24T03:42:36.005Z,94696.66
2023-04-24T03:45:03.532Z,94657.94
2023-04-24T03:47:30.159Z,94668.66
2023-04-24T03:49:56.886Z,94680.63
2023-04-24T03:52:24.758Z,94677.44
2023-04-24T03:54:51.274Z,94683.19
2023-04-24T03:57:18.147Z,94671.47
2023-04-24T03:59:44.661Z,94679.78
2023-04-24T04:02:11.492Z,94673.22
2023-04-24T04:04:38.190Z,94685.41
2023-04-24T04:07:06.288Z,94690.84
2023-04-24T04:09:33.590Z,94684.63
2023-04-24T04:12:01.404Z,94692.78
2023-04-24T04:14:28.770Z,94695.50
2023-04-24T04:16:55.526Z,94701.75
2023-04-24T04:19:22.316Z,94706.66
2023-04-24T04:21:53.934Z,94701.75
2023-04-24T04:24:24.981Z,94698.50
2023-04-24T04:26:53.085Z,94705.56
2023-04-24T04:29:19.664Z,94704.47
2023-04-24T04:31:46.309Z,94719.66
2023-04-24T04:34:13.699Z,94722.16
2023-04-24T04:36:41.190Z,94711.63
2023-04-24T04:39:08.484Z,94715.28
2023-04-24T04:41:38.825Z,94722.31
2023-04-24T04:44:06.582Z,94722.16
2023-04-24T04:46:38.397Z,94719.97
2023-04-24T04:49:05.333Z,94730.22
2023-04-24T04:51:32.168Z,94729.28
2023-04-24T04:53:58.624Z,94734.41
2023-04-24T04:56:25.688Z,94736.81
2023-04-24T04:58:52.156Z,94719.19
2023-04-24T05:01:19.874Z,94734.72
2023-04-24T05:03:46.768Z,94746.41
2023-04-24T05:06:13.504Z,94739.19
2023-04-24T05:08:40.478Z,94749.44
2023-04-24T05:11:07.355Z,94745.41
2023-04-24T05:13:39.854Z,94750.53
2023-04-24T05:16:08.058Z,94753.44
2023-04-24T05:18:34.951Z,94764.31
2023-04-24T05:21:02.301Z,94763.34
2023-04-24T05:23:28.844Z,94763.19
2023-04-24T05:25:55.617Z,94780.94
2023-04-24T05:28:22.329Z,94781.75
2023-04-24T05:30:48.780Z,94782.56
2023-04-24T05:33:15.514Z,94771.19
2023-04-24T05:35:47.719Z,94786.06
2023-04-24T05:38:14.781Z,94784.47
2023-04-24T05:40:41.274Z,94778.41
2023-04-24T05:43:07.775Z,94769.78
2023-04-24T05:45:36.845Z,94783.56
2023-04-24T05:48:04.350Z,94789.19
2023-04-24T05:50:31.208Z,94793.81
2023-04-24T05:53:02.864Z,94789.00
2023-04-24T05:55:29.497Z,94790.78
2023-04-24T05:57:56.056Z,94788.56
2023-04-24T06:00:22.776Z,94797.03
2023-04-24T06:02:49.975Z,94794.78
2023-04-24T06:05:17.152Z,94784.53
2023-04-24T06:07:43.655Z,94801.84
2023-04-24T06:10:11.045Z,94804.41
2023-04-24T06:12:38.386Z,94801.22
2023-04-24T06:15:05.438Z,94807.31
2023-04-24T06:17:32.315Z,94824.13
2023-04-24T06:19:58.946Z,94818.19
2023-04-24T06:22:25.560Z,94804.91
2023-04-24T06:24:52.197Z,94820.59
2023-04-24T06:27:18.693Z,94825.41
2023-04-24T06:29:45.256Z,94812.59
2023-04-24T06:32:12.041Z,94824.28
2023-04-24T06:34:38.777Z,94833.13
2023-04-24T06:37:05.345Z,94833.47
2023-04-24T06:39:33.240Z,94829.78
2023-04-24T08:53:55.967Z,95011.00
2023-04-24T08:56:24.442Z,95011.81
2023-04-24T08:58:52.426Z,95021.22
2023-04-24T09:01:22.526Z,95020.56
2023-04-24T09:03:50.957Z,95019.78
2023-04-24T09:06:20.325Z,95017.53
2023-04-24T09:08:48.114Z,95020.56
2023-04-24T09:11:14.783Z,95022.16
2023-04-24T09:13:42.160Z,95013.81
2023-04-24T09:16:08.761Z,95018.28
2023-04-24T09:18:37.569Z,95013.47
2023-04-24T09:21:08.338Z,95022.63
2023-04-24T09:23:35.346Z,94996.50
2023-04-24T09:26:03.395Z,95022.41
2023-04-24T09:28:36.976Z,95015.28
2023-04-24T09:31:19.175Z,95008.69
2023-04-24T09:34:06.435Z,95022.53
2023-04-24T09:36:41.513Z,95013.09
2023-04-24T09:39:13.607Z,95010.19
2023-04-24T09:41:54.967Z,95013.84
2023-04-24T09:44:23.614Z,95023.78
2023-04-24T09:46:52.645Z,95024.41
2023-04-24T09:49:30.112Z,95035.19
2023-04-24T09:52:11.309Z,95033.81
2023-04-24T09:54:38.768Z,95024.81
2023-04-24T09:57:06.048Z,95026.84
2023-04-24T09:59:33.012Z,95018.56
2023-04-24T10:02:01.132Z,95014.91
2023-04-24T10:04:29.533Z,95023.63
2023-04-24T10:06:58.422Z,95031.38
2023-04-24T10:09:27.169Z,95036.38
2023-04-24T10:11:55.702Z,95043.91
2023-04-24T10:14:24.486Z,95038.47
2023-04-24T10:16:53.839Z,95032.50
2023-04-24T10:19:20.972Z,95043.53
2023-04-24T10:21:48.133Z,95039.03
2023-04-24T10:24:16.673Z,95043.13
2023-04-24T10:26:44.178Z,95046.25
2023-04-24T10:29:13.651Z,95038.72
2023-04-24T10:31:41.052Z,95055.63
2023-04-24T10:34:09.995Z,95039.03
2023-04-24T10:36:59.823Z,95057.19
2023-04-24T10:39:28.567Z,95052.38
2023-04-24T10:41:58.801Z,95061.06
2023-04-24T10:44:25.798Z,95069.78
2023-04-24T10:46:56.758Z,95070.09
2023-04-24T10:49:31.208Z,95066.41
2023-04-24T10:52:02.721Z,95077.94
2023-04-24T10:54:41.660Z,95095.28
2023-04-24T10:57:20.623Z,95105.41
2023-04-24T10:59:48.382Z,95097.72
2023-04-24T11:02:19.205Z,95097.25
2023-04-24T11:04:46.670Z,95107.03
2023-04-24T11:07:13.975Z,95102.84
2023-04-24T11:09:44.404Z,95105.44
2023-04-24T11:12:13.727Z,95116.69
2023-04-24T11:14:59.180Z,95112.97
2023-04-24T11:17:38.558Z,95110.22
2023-04-24T11:20:26.158Z,95107.03
2023-04-24T11:23:05.125Z,95120.97
2023-04-24T11:25:33.378Z,95119.69
2023-04-24T11:28:07.333Z,95115.00
2023-04-24T11:30:34.867Z,95110.34
2023-04-24T11:33:06.023Z,95100.56
2023-04-24T11:35:38.559Z,95105.41
2023-04-24T11:40:36.050Z,95096.53
2023-04-24T11:43:07.739Z,95106.38
2023-04-24T11:45:34.894Z,95115.19
2023-04-24T11:48:01.658Z,95088.16
2023-04-24T11:50:29.653Z,95102.75
2023-04-24T11:52:56.993Z,95113.59
2023-04-24T11:55:29.668Z,95108.50
2023-04-24T11:57:58.633Z,95096.25
2023-04-24T12:00:30.350Z,95110.69
2023-04-24T12:03:08.855Z,95114.91
2023-04-24T12:05:36.252Z,95118.13
2023-04-24T12:08:03.168Z,95141.44
2023-04-24T12:10:32.114Z,95129.75
2023-04-24T12:12:59.979Z,95145.13
2023-04-24T12:15:27.264Z,95138.84
2023-04-24T12:17:56.145Z,95154.75
2023-04-24T12:20:31.180Z,95142.66
2023-04-24T12:22:59.821Z,95155.59
2023-04-24T12:25:30.918Z,95142.13
2023-04-24T12:28:06.793Z,95141.84
2023-04-24T12:30:36.460Z,95147.81
2023-04-24T12:33:05.631Z,95144.47
2023-04-24T12:35:34.596Z,95145.72
2023-04-24T12:38:11.575Z,95144.13
2023-04-24T12:40:38.333Z,95150.53
2023-04-24T12:43:18.153Z,95151.03
2023-04-24T12:45:46.087Z,95139.47
2023-04-24T12:48:13.250Z,95156.84
2023-04-24T12:50:46.074Z,95158.41
2023-04-24T12:53:13.727Z,95153.94
2023-04-24T12:55:40.769Z,95148.31
2023-04-24T12:58:09.134Z,95150.72
2023-04-24T13:00:35.805Z,95146.69
2023-04-24T13:03:02.865Z,95155.19
2023-04-24T13:39:13.196Z,95106.13
2023-04-24T13:41:42.872Z,95110.94
2023-04-24T13:44:10.255Z,95111.72
2023-04-24T13:46:37.019Z,95119.00
2023-04-24T13:49:04.662Z,95126.28
2023-04-24T13:51:31.486Z,95111.75
2023-04-24T13:53:58.002Z,95110.16
2023-04-24T13:56:24.750Z,95108.66
2023-04-24T13:58:51.739Z,95101.41
2023-04-24T14:01:19.452Z,95103.28
2023-04-24T14:03:46.493Z,95108.81
2023-04-24T14:06:13.217Z,95092.56
2023-04-24T14:08:39.896Z,95106.44
2023-04-24T14:11:06.559Z,95091.88
2023-04-24T14:13:38.581Z,95092.97
2023-04-24T14:16:05.950Z,95089.00
2023-04-24T14:18:32.583Z,95076.53
2023-04-24T14:20:59.226Z,95085.25
2023-04-24T14:23:25.811Z,95086.22
2023-04-24T14:25:53.482Z,95078.59
2023-04-24T14:28:21.331Z,95080.78
2023-04-24T14:30:48.537Z,95080.81
2023-04-24T14:33:15.687Z,95060.66
2023-04-24T14:35:44.174Z,95063.41
2023-04-24T14:38:11.380Z,95086.63
2023-04-24T14:41:02.556Z,95085.97
2023-04-24T14:43:24.670Z,95079.97
2023-04-24T14:45:51.464Z,95095.56
2023-04-24T14:48:18.728Z,95064.63
2023-04-24T14:50:46.273Z,95095.00
2023-04-24T14:53:12.820Z,95102.56
2023-04-24T14:55:39.569Z,95108.81
2023-04-24T14:58:06.198Z,95098.50
2023-04-24T15:00:32.876Z,95090.50
2023-04-24T15:02:59.671Z,95096.53
2023-04-24T15:05:26.707Z,95080.28
2023-04-24T15:07:53.632Z,95092.28
2023-04-24T15:10:23.368Z,95090.91
2023-04-24T15:12:50.999Z,95093.94
2023-04-24T15:15:17.863Z,95091.03
2023-04-24T15:17:44.360Z,95098.59
2023-04-24T15:20:11.132Z,95097.78
2023-04-24T15:22:37.668Z,95105.22
2023-04-24T15:25:04.911Z,95100.31
2023-04-24T15:27:41.529Z,95109.22
2023-04-24T15:30:09.117Z,95120.00
2023-04-24T15:32:37.095Z,95133.09
2023-04-24T15:35:09.289Z,95128.06
2023-04-24T15:37:37.200Z,95131.72
2023-04-24T15:40:06.589Z,95145.75
2023-04-24T15:42:34.373Z,95155.06
2023-04-24T15:45:00.937Z,95171.94
2023-04-24T15:47:27.791Z,95165.97
2023-04-24T15:49:54.644Z,95174.00
2023-04-24T15:52:21.269Z,95177.53
2023-04-24T15:54:47.916Z,95185.28
2023-04-24T15:57:16.650Z,95179.97
2023-04-24T15:59:45.648Z,95188.53
2023-04-24T16:02:20.883Z,95191.72
2023-04-24T16:04:49.086Z,95190.47
2023-04-24T16:07:18.239Z,95197.84
2023-04-24T16:09:44.936Z,95191.25
2023-04-24T16:12:12.101Z,95193.50
2023-04-24T16:14:38.881Z,95189.66
2023-04-24T16:17:05.986Z,95192.88
2023-04-24T16:19:34.597Z,95196.09
2023-04-24T16:22:03.379Z,95195.13
2023-04-24T16:24:30.486Z,95200.75
2023-04-24T16:26:57.461Z,95198.47
2023-04-24T16:29:31.174Z,95200.84
2023-04-24T16:31:57.679Z,95204.19
2023-04-24T16:34:24.449Z,95202.75
2023-04-24T16:36:51.066Z,95201.91
2023-04-24T16:39:18.007Z,95216.53
2023-04-24T16:41:46.173Z,95233.09
2023-04-24T16:44:13.709Z,95228.69
2023-04-24T16:46:40.356Z,95242.28
2023-04-24T16:49:08.138Z,95239.72
2023-04-24T16:51:34.882Z,95256.06
2023-04-24T16:54:02.298Z,95251.81
2023-04-24T16:56:28.844Z,95249.63
2023-04-24T16:58:56.291Z,95252.75
2023-04-24T17:01:30.424Z,95253.06
2023-04-24T17:03:57.448Z,95245.69
2023-04-24T17:06:24.462Z,95249.63
2023-04-24T17:08:54.384Z,95240.38
2023-04-24T17:11:21.347Z,95238.53
2023-04-24T17:13:54.005Z,95241.38
2023-04-24T17:16:45.952Z,95248.63
2023-04-24T17:19:39.997Z,95245.59
2023-04-24T17:22:07.303Z,95237.22
2023-04-24T17:24:35.166Z,95242.56
2023-04-24T17:27:13.887Z,95237.44
2023-04-24T17:29:45.034Z,95236.63
2023-04-24T17:32:13.849Z,95236.81
2023-04-24T17:34:40.748Z,95237.72
2023-04-24T17:37:07.254Z,95235.31
2023-04-24T17:39:33.797Z,95244.78
2023-04-24T17:42:01.486Z,95232.50
2023-04-24T17:44:30.175Z,95235.09
2023-04-24T17:46:56.838Z,95242.34
2023-04-24T17:49:25.394Z,95237.81
2023-04-24T17:51:52.024Z,95238.25
2023-04-24T17:54:18.618Z,95239.53
2023-04-24T17:56:45.500Z,95235.72
2023-04-24T17:59:12.198Z,95249.63
2023-04-24T18:01:38.839Z,95236.13
2023-04-24T18:04:05.661Z,95237.53
2023-04-24T18:06:32.556Z,95242.09
2023-04-24T18:08:59.097Z,95236.63
2023-04-24T18:11:31.963Z,95237.75
2023-04-24T18:13:58.651Z,95237.13
2023-04-24T18:16:25.922Z,95232.09
2023-04-24T18:18:53.838Z,95242.78
2023-04-24T18:21:20.463Z,95231.31
2023-04-24T18:23:47.033Z,95240.56
2023-04-24T18:26:16.981Z,95241.59
2023-04-24T18:28:44.317Z,95241.38
2023-04-24T18:31:11.040Z,95238.97
2023-04-24T18:33:37.798Z,95246.00
2023-04-24T18:36:04.518Z,95245.41
2023-04-24T18:38:31.344Z,95238.97
2023-04-24T18:40:59.208Z,95242.19
2023-04-24T18:43:25.796Z,95255.69
2023-04-24T18:45:52.454Z,95254.06
2023-04-24T18:48:18.896Z,95261.63
2023-04-24T18:50:46.483Z,95258.91
2023-04-24T18:53:15.271Z,95271.91
2023-04-24T18:55:41.813Z,95260.72
2023-04-24T18:58:08.377Z,95275.63
2023-04-24T19:00:34.909Z,95275.63
2023-04-24T19:03:01.575Z,95279.88
2023-04-24T19:05:28.128Z,95281.16
2023-04-24T19:07:54.809Z,95278.84
2023-04-24T19:10:21.278Z,95285.22
2023-04-24T19:12:49.514Z,95272.22
2023-04-24T19:15:16.166Z,95291.97
2023-04-24T19:17:42.779Z,95292.25
2023-04-24T19:20:09.647Z,95294.69
2023-04-24T19:22:37.398Z,95302.84
2023-04-24T19:25:05.384Z,95301.44
2023-04-24T19:27:32.020Z,95301.63
2023-04-24T19:29:58.567Z,95302.25
2023-04-24T19:32:25.545Z,95313.94
2023-04-24T19:34:52.110Z,95307.88
2023-04-24T19:37:18.617Z,95305.97
2023-04-24T19:39:45.281Z,95309.50
2023-04-24T19:42:11.742Z,95309.81
2023-04-24T19:44:38.360Z,95300.53
2023-04-24T19:47:04.931Z,95303.25
2023-04-24T19:49:32.655Z,95305.16
2023-04-24T19:51:59.126Z,95302.25
2023-04-24T19:54:26.139Z,95305.16
2023-04-24T19:56:52.636Z,95303.25
2023-04-24T19:59:19.294Z,95305.78
2023-04-24T20:01:46.005Z,95299.81
2023-04-24T20:04:13.057Z,95308.00
2023-04-24T20:06:39.695Z,95304.97
2023-04-24T20:09:06.362Z,95309.59
2023-04-24T20:11:33.932Z,95303.34
2023-04-24T20:14:03.557Z,95296.59
2023-04-24T20:16:30.967Z,95302.34
2023-04-24T20:18:58.418Z,95305.56
2023-04-24T20:21:25.085Z,95313.44
2023-04-24T20:23:52.313Z,95308.59
2023-04-24T20:26:18.870Z,95303.25
2023-04-24T20:28:45.423Z,95299.22
2023-04-24T20:31:12.144Z,95305.25
2023-04-24T20:33:41.394Z,95306.88
2023-04-24T20:36:09.571Z,95312.63
2023-04-24T20:38:36.932Z,95308.09
2023-04-24T20:41:03.837Z,95304.25
2023-04-24T20:43:30.421Z,95304.84
2023-04-24T20:46:00.146Z,95305.06
2023-04-24T20:48:26.807Z,95313.53
2023-04-24T20:50:54.148Z,95307.28
2023-04-24T20:53:23.498Z,95302.13
2023-04-24T20:55:52.305Z,95293.69
2023-04-24T20:58:20.781Z,95286.91
2023-04-24T21:00:47.674Z,95300.81
2023-04-24T21:03:14.229Z,95295.88
2023-04-24T21:05:40.872Z,95289.75
2023-04-24T21:08:07.319Z,95294.06
2023-04-24T21:10:35.877Z,95299.81
2023-04-24T21:13:02.445Z,95297.91
2023-04-24T21:15:29.399Z,95292.47
2023-04-24T21:17:56.538Z,95289.22
2023-04-24T21:20:24.353Z,95296.88
2023-04-24T21:22:50.946Z,95290.63
2023-04-24T21:25:17.704Z,95287.91
2023-04-24T21:27:44.409Z,95286.31
2023-04-24T21:30:13.183Z,95285.00
2023-04-24T21:32:40.566Z,95282.28
2023-04-24T21:35:07.579Z,95274.41
2023-04-24T21:37:35.458Z,95281.47
2023-04-24T21:40:04.658Z,95279.06
2023-04-24T21:42:31.836Z,95275.81
2023-04-24T21:44:58.736Z,95278.25
2023-04-24T21:47:25.357Z,95275.00
2023-04-24T21:49:51.967Z,95272.56
2023-04-24T21:52:18.582Z,95264.72
2023-04-24T21:54:45.079Z,95271.56
2023-04-24T21:57:12.338Z,95273.69
2023-04-24T21:59:39.423Z,95268.53
2023-04-24T22:02:06.224Z,95277.00
2023-04-24T22:04:33.304Z,95269.66
2023-04-24T22:06:59.840Z,95273.16
2023-04-24T22:09:26.429Z,95276.50
2023-04-24T22:11:54.841Z,95268.63
2023-04-24T22:14:21.472Z,95275.47
2023-04-24T22:16:48.036Z,95274.97
2023-04-24T22:19:14.673Z,95272.25
2023-04-24T22:21:41.600Z,95276.59
2023-04-24T22:24:08.887Z,95273.16
2023-04-24T22:26:35.808Z,95273.16
2023-04-24T22:29:02.495Z,95284.53
2023-04-24T22:31:29.213Z,95277.19
2023-04-24T22:33:55.888Z,95272.25
2023-04-24T22:36:22.414Z,95274.97
2023-04-24T22:38:48.866Z,95271.16
2023-04-24T22:41:16.066Z,95271.97
2023-04-24T22:43:42.583Z,95279.00
2023-04-24T22:46:09.133Z,95265.22
2023-04-24T22:48:36.225Z,95278.81
2023-04-24T22:51:03.167Z,95270.66
2023-04-24T22:53:29.938Z,95268.44
2023-04-24T22:55:56.820Z,95260.88
2023-04-24T22:58:24.383Z,95268.53
2023-04-24T23:00:51.143Z,95266.31
2023-04-24T23:03:17.759Z,95261.47
2023-04-24T23:05:44.454Z,95265.81
